createdAt,value
2023-04-09T00:01:30.799Z,96902.50
2023-04-09T00:03:59.475Z,96898.69
2023-04-09T00:06:28.311Z,96899.75
2023-04-09T00:08:56.651Z,96905.72
2023-04-09T00:11:25.087Z,96891.47
2023-04-09T00:13:54.796Z,96895.91
2023-04-09T00:16:23.239Z,96898.94
2023-04-09T00:18:51.878Z,96897.00
2023-04-09T00:21:20.801Z,96893.56
2023-04-09T00:23:49.381Z,96893.88
2023-04-09T00:26:17.824Z,96888.53
2023-04-09T00:28:46.308Z,96897.38
2023-04-09T00:31:16.211Z,96891.25
2023-04-09T00:33:44.587Z,96886.28
2023-04-09T00:36:12.912Z,96896.63
2023-04-09T00:38:41.426Z,96893.88
2023-04-09T00:41:09.917Z,96890.56
2023-04-09T00:43:38.287Z,96891.78
2023-04-09T00:46:06.911Z,96890.81
2023-04-09T00:48:37.460Z,96889.72
2023-04-09T00:51:05.860Z,96894.84
2023-04-09T00:53:36.234Z,96895.47
2023-04-09T00:56:06.194Z,96891.38
2023-04-09T00:58:36.373Z,96896.31
2023-04-09T01:01:04.826Z,96887.19
2023-04-09T01:03:37.142Z,96902.00
2023-04-09T01:06:09.427Z,96896.19
2023-04-09T01:08:45.842Z,96895.47
2023-04-09T01:11:25.335Z,96901.66
2023-04-09T01:14:02.500Z,96898.56
2023-04-09T01:16:34.862Z,96898.69
2023-04-09T01:19:12.653Z,96899.53
2023-04-09T01:21:42.459Z,96904.59
2023-04-09T01:24:22.730Z,96900.38
2023-04-09T01:26:59.575Z,96899.31
2023-04-09T01:29:34.493Z,96898.22
2023-04-09T01:32:04.115Z,96892.59
2023-04-09T01:34:33.906Z,96896.41
2023-04-09T01:37:04.389Z,96902.97
2023-04-09T01:39:34.665Z,96894.97
2023-04-09T01:42:04.117Z,96891.34
2023-04-09T01:44:34.457Z,96898.81
2023-04-09T01:47:03.032Z,96906.69
2023-04-09T01:49:31.919Z,96904.63
2023-04-09T01:52:02.160Z,96900.22
2023-04-09T01:54:30.482Z,96892.34
2023-04-09T01:56:59.322Z,96889.72
2023-04-09T01:59:27.813Z,96898.19
2023-04-09T02:02:02.494Z,96905.91
2023-04-09T02:04:36.745Z,96898.03
2023-04-09T02:07:11.245Z,96889.31
2023-04-09T02:09:44.314Z,96900.66
2023-04-09T02:12:15.600Z,96902.34
2023-04-09T02:14:46.989Z,96899.00
2023-04-09T02:17:18.018Z,96897.19
2023-04-09T02:19:48.637Z,96902.56
2023-04-09T02:22:26.017Z,96898.19
2023-04-09T02:25:04.657Z,96904.38
2023-04-09T02:27:42.961Z,96889.44
2023-04-09T02:30:12.561Z,96892.06
2023-04-09T02:32:52.244Z,96892.06
2023-04-09T02:35:30.638Z,96890.28
2023-04-09T02:38:13.643Z,96891.34
2023-04-09T02:40:51.969Z,96896.88
2023-04-09T02:43:30.251Z,96895.47
2023-04-09T02:46:08.900Z,96891.88
2023-04-09T02:48:48.601Z,96892.69
2023-04-09T02:51:17.004Z,96890.44
2023-04-09T02:53:45.638Z,96882.72
2023-04-09T02:56:14.040Z,96888.34
2023-04-09T02:58:42.476Z,96888.94
2023-04-09T03:01:11.112Z,96892.16
2023-04-09T03:03:42.142Z,96893.81
2023-04-09T03:06:12.194Z,96905.00
2023-04-09T03:08:40.599Z,96897.13
2023-04-09T03:11:08.936Z,96898.94
2023-04-09T03:13:37.297Z,96903.47
2023-04-09T03:16:06.300Z,96896.44
2023-04-09T03:18:35.921Z,96893.09
2023-04-09T03:21:07.530Z,96895.72
2023-04-09T03:23:37.710Z,96894.78
2023-04-09T03:26:07.143Z,96897.25
2023-04-09T03:28:36.270Z,96897.13
2023-04-09T03:31:04.700Z,96897.03
2023-04-09T03:33:33.086Z,96906.56
2023-04-09T03:36:01.519Z,96901.31
2023-04-09T03:38:29.966Z,96908.34
2023-04-09T03:40:59.655Z,96901.44
2023-04-09T03:43:27.941Z,96905.00
2023-04-09T03:45:56.300Z,96906.81
2023-04-09T03:48:24.708Z,96908.63
2023-04-09T03:50:53.765Z,96903.38
2023-04-09T03:53:22.154Z,96907.75
2023-04-09T03:55:50.650Z,96907.66
2023-04-09T03:58:20.357Z,96905.41
2023-04-09T04:00:48.720Z,96904.44
2023-04-09T04:03:17.292Z,96903.38
2023-04-09T04:05:45.776Z,96904.06
2023-04-09T04:08:14.143Z,96905.59
2023-04-09T04:10:42.506Z,96900.34
2023-04-09T04:13:11.204Z,96911.69
2023-04-09T04:15:42.709Z,96902.03
2023-04-09T04:18:11.683Z,96900.22
2023-04-09T04:20:41.336Z,96896.78
2023-04-09T04:23:09.679Z,96902.28
2023-04-09T04:25:38.095Z,96900.16
2023-04-09T04:28:06.581Z,96894.00
2023-04-09T04:30:36.182Z,96887.59
2023-04-09T04:33:06.023Z,96887.28
2023-04-09T04:35:34.622Z,96890.59
2023-04-09T04:38:03.051Z,96901.94
2023-04-09T04:40:31.571Z,96900.00
2023-04-09T04:43:01.349Z,96912.19
2023-04-09T04:45:29.750Z,96916.94
2023-04-09T04:47:58.252Z,96920.16
2023-04-09T04:50:27.997Z,96910.38
2023-04-09T04:52:56.425Z,96920.59
2023-04-09T04:55:24.790Z,96930.41
2023-04-09T04:57:53.590Z,96923.59
2023-04-09T05:00:21.900Z,96928.47
2023-04-09T05:02:50.469Z,96925.41
2023-04-09T05:05:18.876Z,96926.84
2023-04-09T05:07:48.629Z,96935.44
2023-04-09T05:10:17.050Z,96928.03
2023-04-09T05:12:45.568Z,96924.44
2023-04-09T05:15:14.097Z,96921.94
2023-04-09T05:17:43.913Z,96918.94
2023-04-09T05:20:13.208Z,96918.59
2023-04-09T05:22:41.777Z,96925.66
2023-04-09T05:25:11.729Z,96925.88
2023-04-09T05:27:40.106Z,96927.44
2023-04-09T05:30:09.801Z,96924.56
2023-04-09T05:32:39.064Z,96927.59
2023-04-09T05:35:07.855Z,96930.09
2023-04-09T05:37:37.376Z,96931.50
2023-04-09T05:40:06.892Z,96931.13
2023-04-09T05:42:37.027Z,96933.75
2023-04-09T05:45:06.057Z,96937.34
2023-04-09T05:47:34.548Z,96947.25
2023-04-09T05:50:03.399Z,96953.09
2023-04-09T05:52:32.141Z,96949.97
2023-04-09T05:55:00.625Z,96944.63
2023-04-09T05:57:30.512Z,96953.78
2023-04-09T06:00:00.289Z,96959.38
2023-04-09T06:02:28.904Z,96952.78
2023-04-09T06:04:57.416Z,96960.19
2023-04-09T06:07:25.960Z,96949.13
2023-04-09T06:09:54.661Z,96954.38
2023-04-09T06:12:23.231Z,96957.72
2023-04-09T06:14:51.731Z,96952.19
2023-04-09T06:17:21.471Z,96960.78
2023-04-09T06:19:49.850Z,96963.09
2023-04-09T06:22:18.286Z,96962.00
2023-04-09T06:24:46.603Z,96964.91
2023-04-09T06:27:14.979Z,96969.78
2023-04-09T06:29:43.346Z,96971.78
2023-04-09T06:32:11.697Z,96979.28
2023-04-09T06:34:41.512Z,96967.72
2023-04-09T06:37:09.915Z,96973.41
2023-04-09T06:39:42.498Z,96975.09
2023-04-09T06:42:13.109Z,96979.66
2023-04-09T06:44:41.513Z,96981.72
2023-04-09T06:47:09.923Z,96977.81
2023-04-09T06:49:38.323Z,96983.28
2023-04-09T06:52:08.461Z,96985.19
2023-04-09T06:54:40.134Z,96988.00
2023-04-09T06:57:08.631Z,96987.53
2023-04-09T06:59:38.224Z,96989.66
2023-04-09T07:02:06.752Z,96994.44
2023-04-09T07:04:35.727Z,96998.47
2023-04-09T07:07:04.371Z,97001.69
2023-04-09T07:09:34.157Z,97000.47
2023-04-09T07:12:02.746Z,96994.88
2023-04-09T07:14:31.225Z,96995.47
2023-04-09T07:16:59.670Z,96986.13
2023-04-09T07:19:28.108Z,96987.09
2023-04-09T07:21:56.492Z,96994.16
2023-04-09T07:24:24.958Z,96995.94
2023-04-09T07:26:54.735Z,96991.19
2023-04-09T07:29:23.175Z,96990.47
2023-04-09T07:31:51.579Z,96994.91
2023-04-09T07:34:20.050Z,96987.84
2023-04-09T07:36:48.632Z,96994.41
2023-04-09T07:39:17.339Z,97003.97
2023-04-09T07:41:45.786Z,97005.03
2023-04-09T07:44:15.686Z,96996.66
2023-04-09T07:46:45.477Z,97000.56
2023-04-09T07:49:13.938Z,96996.59
2023-04-09T07:51:42.290Z,96991.94
2023-04-09T07:54:11.020Z,96993.47
2023-04-09T07:56:40.773Z,96990.00
2023-04-09T07:59:09.254Z,96993.13
2023-04-09T08:01:39.591Z,97004.53
2023-04-09T08:04:08.204Z,96999.34
2023-04-09T08:06:38.053Z,96998.97
2023-04-09T08:09:06.826Z,96996.41
2023-04-09T08:11:35.337Z,96994.91
2023-04-09T08:14:04.671Z,96994.41
2023-04-09T08:16:33.150Z,96991.13
2023-04-09T08:19:02.932Z,96997.41
2023-04-09T08:21:32.225Z,97000.50
2023-04-09T08:24:04.429Z,96995.47
2023-04-09T08:26:33.075Z,96998.56
2023-04-09T08:29:02.508Z,97001.03
2023-04-09T08:31:31.228Z,96997.06
2023-04-09T08:33:59.864Z,96992.00
2023-04-09T08:36:29.697Z,96990.69
2023-04-09T08:38:58.170Z,96998.44
2023-04-09T08:41:28.586Z,96994.66
2023-04-09T08:43:59.204Z,96994.38
2023-04-09T08:46:28.768Z,97004.00
2023-04-09T08:48:57.301Z,97011.06
2023-04-09T08:51:25.868Z,96998.88
2023-04-09T08:53:58.335Z,97000.28
2023-04-09T08:56:27.355Z,96997.22
2023-04-09T08:58:56.707Z,97008.06
2023-04-09T09:01:26.772Z,97002.66
2023-04-09T09:03:57.958Z,97005.88
2023-04-09T09:06:28.782Z,97003.63
2023-04-09T09:09:04.117Z,97002.09
2023-04-09T09:11:32.786Z,97008.06
2023-04-09T09:14:05.617Z,97006.94
2023-04-09T09:16:35.869Z,97009.72
2023-04-09T09:19:04.572Z,97002.53
2023-04-09T09:21:33.349Z,97010.03
2023-04-09T09:24:03.773Z,97005.88
2023-04-09T09:26:32.972Z,97005.16
2023-04-09T09:29:05.946Z,97004.47
2023-04-09T09:31:47.380Z,97000.13
2023-04-09T09:34:15.913Z,97006.38
2023-04-09T09:36:45.628Z,97005.91
2023-04-09T09:39:17.590Z,97001.56
2023-04-09T09:41:48.724Z,97004.31
2023-04-09T09:44:32.774Z,97001.69
2023-04-09T09:47:04.665Z,96991.50
2023-04-09T09:49:33.186Z,96996.03
2023-04-09T09:52:03.791Z,96999.09
2023-04-09T09:54:41.733Z,96992.53
2023-04-09T09:57:13.557Z,96995.25
2023-04-09T09:59:48.764Z,96994.69
2023-04-09T10:02:21.838Z,96994.25
2023-04-09T10:04:52.828Z,96994.88
2023-04-09T10:07:22.802Z,97001.19
2023-04-09T10:09:54.679Z,96992.72
2023-04-09T10:12:24.862Z,96993.50
2023-04-09T10:14:53.530Z,96988.44
2023-04-09T10:17:22.230Z,96988.97
2023-04-09T10:19:57.844Z,96985.59
2023-04-09T10:22:30.811Z,96988.00
2023-04-09T10:25:00.807Z,96994.38
2023-04-09T10:27:29.234Z,96991.13
2023-04-09T10:29:57.769Z,96980.91
2023-04-09T10:32:28.024Z,96981.75
2023-04-09T10:34:59.328Z,96983.91
2023-04-09T10:37:28.954Z,96981.16
2023-04-09T10:39:57.926Z,96977.13
2023-04-09T10:42:33.270Z,96974.72
2023-04-09T10:45:09.641Z,96972.13
2023-04-09T10:47:40.503Z,96971.50
2023-04-09T10:50:20.102Z,96972.81
2023-04-09T10:52:52.782Z,96976.63
2023-04-09T10:55:44.455Z,96972.47
2023-04-09T10:58:14.302Z,96977.38
2023-04-09T11:00:45.152Z,96964.25
2023-04-09T11:03:25.022Z,96966.41
2023-04-09T11:05:56.700Z,96968.94
2023-04-09T11:08:25.088Z,96959.38
2023-04-09T11:10:58.318Z,96964.69
2023-04-09T11:13:29.446Z,96959.41
2023-04-09T11:15:58.667Z,96963.72
2023-04-09T11:18:28.789Z,96957.41
2023-04-09T11:20:57.616Z,96957.41
2023-04-09T11:23:26.543Z,96956.25
2023-04-09T11:25:56.228Z,96963.59
2023-04-09T11:28:25.697Z,96954.63
2023-04-09T11:30:55.517Z,96958.63
2023-04-09T11:33:23.950Z,96949.53
2023-04-09T11:35:52.606Z,96952.00
2023-04-09T11:38:21.037Z,96947.38
2023-04-09T11:40:49.936Z,96948.91
2023-04-09T11:43:20.869Z,96951.22
2023-04-09T11:45:50.299Z,96955.44
2023-04-09T11:48:21.881Z,96951.81
2023-04-09T11:50:50.881Z,96953.50
2023-04-09T11:53:20.459Z,96952.84
2023-04-09T11:55:51.388Z,96949.22
2023-04-09T11:58:23.058Z,96955.53
2023-04-09T12:00:54.771Z,96959.16
2023-04-09T12:03:32.429Z,96961.31
2023-04-09T12:06:03.134Z,96956.50
2023-04-09T12:08:34.573Z,96959.16
2023-04-09T12:11:10.515Z,96953.34
2023-04-09T12:13:42.909Z,96959.81
2023-04-09T12:16:11.573Z,96960.31
2023-04-09T12:18:43.501Z,96965.78
2023-04-09T12:21:12.003Z,96965.28
2023-04-09T12:23:43.944Z,96970.06
2023-04-09T12:26:12.507Z,96967.88
2023-04-09T12:28:42.298Z,96968.97
2023-04-09T12:31:12.002Z,96970.94
2023-04-09T12:33:43.682Z,96968.25
2023-04-09T12:36:12.101Z,96972.38
2023-04-09T12:38:40.611Z,96972.50
2023-04-09T12:41:09.565Z,96974.59
2023-04-09T12:43:38.098Z,96976.53
2023-04-09T12:46:07.113Z,96976.81
2023-04-09T12:48:38.310Z,96984.88
2023-04-09T12:51:09.031Z,96984.13
2023-04-09T12:53:37.488Z,96990.84
2023-04-09T12:56:06.661Z,96982.72
2023-04-09T12:58:35.282Z,96988.00
2023-04-09T13:01:07.505Z,96982.56
2023-04-09T13:03:36.424Z,96986.88
2023-04-09T13:06:05.447Z,96973.47
2023-04-09T13:08:35.294Z,96979.44
2023-04-09T13:11:04.443Z,96978.47
2023-04-09T13:13:33.667Z,96981.78
2023-04-09T13:16:02.319Z,96980.66
2023-04-09T13:18:30.735Z,96977.84
2023-04-09T13:20:59.150Z,96975.88
2023-04-09T13:23:27.571Z,96979.50
2023-04-09T13:25:57.332Z,96973.53
2023-04-09T13:28:26.113Z,96979.00
2023-04-09T13:30:54.811Z,96971.34
2023-04-09T13:33:23.263Z,96969.84
2023-04-09T13:35:52.043Z,96971.66
2023-04-09T13:38:20.761Z,96968.84
2023-04-09T13:40:49.409Z,96962.88
2023-04-09T13:43:19.186Z,96956.78
2023-04-09T13:45:49.813Z,96962.34
2023-04-09T13:48:18.306Z,96962.34
2023-04-09T13:50:46.977Z,96956.91
2023-04-09T13:53:15.910Z,96965.69
2023-04-09T13:55:48.575Z,96964.03
2023-04-09T13:58:16.943Z,96961.41
2023-04-09T14:00:47.417Z,96965.00
2023-04-09T14:03:16.300Z,96957.91
2023-04-09T14:05:46.211Z,96959.56
2023-04-09T14:08:14.753Z,96952.78
2023-04-09T14:10:44.294Z,96953.59
2023-04-09T14:13:12.695Z,96956.78
2023-04-09T14:15:41.821Z,96947.00
2023-04-09T14:18:11.744Z,96941.50
2023-04-09T14:20:40.234Z,96948.41
2023-04-09T14:23:08.727Z,96947.88
2023-04-09T14:25:37.466Z,96955.63
2023-04-09T14:28:05.938Z,96947.16
2023-04-09T14:30:34.418Z,96945.56
2023-04-09T14:33:02.910Z,96957.81
2023-04-09T14:35:32.787Z,96944.38
2023-04-09T14:38:04.263Z,96950.25
2023-04-09T14:40:33.283Z,96942.72
2023-04-09T14:43:01.987Z,96940.28
2023-04-09T14:45:31.013Z,96946.75
2023-04-09T14:47:59.496Z,96941.25
2023-04-09T14:50:27.925Z,96940.44
2023-04-09T14:52:59.722Z,96936.66
2023-04-09T14:55:28.321Z,96927.19
2023-04-09T14:57:56.714Z,96937.34
2023-04-09T15:00:25.432Z,96932.69
2023-04-09T15:02:54.025Z,96934.50
2023-04-09T15:05:22.840Z,96936.38
2023-04-09T15:07:51.282Z,96936.56
2023-04-09T15:10:21.534Z,96933.75
2023-04-09T15:12:49.957Z,96924.47
2023-04-09T15:15:18.367Z,96931.28
2023-04-09T15:17:47.872Z,96923.66
2023-04-09T15:20:16.267Z,96924.97
2023-04-09T15:22:44.677Z,96922.31
2023-04-09T15:25:14.457Z,96922.16
2023-04-09T15:27:46.866Z,96926.31
2023-04-09T15:30:15.374Z,96923.66
2023-04-09T15:32:46.353Z,96920.84
2023-04-09T15:35:19.105Z,96929.31
2023-04-09T15:37:47.493Z,96924.66
2023-04-09T15:40:16.003Z,96923.31
2023-04-09T15:42:48.279Z,96916.16
2023-04-09T15:45:17.364Z,96913.34
2023-04-09T15:47:46.623Z,96916.66
2023-04-09T15:50:15.182Z,96916.31
2023-04-09T15:52:46.363Z,96925.22
2023-04-09T15:55:14.821Z,96920.25
2023-04-09T15:57:46.702Z,96918.94
2023-04-09T16:00:16.636Z,96918.97
2023-04-09T16:02:46.412Z,96918.16
2023-04-09T16:05:14.852Z,96917.50
2023-04-09T16:07:44.686Z,96913.19
2023-04-09T16:10:14.716Z,96914.53
2023-04-09T16:12:43.463Z,96918.16
2023-04-09T16:15:12.440Z,96918.00
2023-04-09T16:17:42.233Z,96917.53
2023-04-09T16:20:11.070Z,96921.66
2023-04-09T16:22:39.670Z,96922.69
2023-04-09T16:25:09.740Z,96926.31
2023-04-09T16:27:38.693Z,96923.81
2023-04-09T16:30:08.254Z,96925.28
2023-04-09T16:32:36.698Z,96924.28
2023-04-09T16:35:07.372Z,96921.72
2023-04-09T16:37:36.326Z,96935.13
2023-04-09T16:40:05.095Z,96938.91
2023-04-09T16:42:33.533Z,96939.38
2023-04-09T16:45:04.373Z,96936.22
2023-04-09T16:47:34.339Z,96938.03
2023-04-09T16:50:03.058Z,96929.28
2023-04-09T16:52:35.381Z,96934.22
2023-04-09T16:55:03.979Z,96927.06
2023-04-09T16:57:32.417Z,96934.16
2023-04-09T17:00:00.864Z,96934.25
2023-04-09T17:02:29.464Z,96935.22
2023-04-09T17:04:58.721Z,96933.50
2023-04-09T17:07:27.208Z,96931.63
2023-04-09T17:09:57.359Z,96940.06
2023-04-09T17:12:26.757Z,96933.56
2023-04-09T17:14:56.057Z,96934.03
2023-04-09T17:17:24.456Z,96944.25
2023-04-09T17:19:53.469Z,96944.03
2023-04-09T17:22:21.944Z,96946.34
2023-04-09T17:24:51.696Z,96944.13
2023-04-09T17:27:21.866Z,96944.88
2023-04-09T17:29:50.807Z,96954.94
2023-04-09T17:32:19.193Z,96950.13
2023-04-09T17:34:50.669Z,96949.44
2023-04-09T17:37:20.859Z,96949.91
2023-04-09T17:39:49.323Z,96950.47
2023-04-09T17:42:17.776Z,96954.53
2023-04-09T17:44:50.574Z,96950.72
2023-04-09T17:47:19.446Z,96950.47
2023-04-09T17:49:48.059Z,96951.22
2023-04-09T17:52:16.462Z,96954.47
2023-04-09T17:54:46.681Z,96951.75
2023-04-09T17:57:15.578Z,96950.41
2023-04-09T17:59:44.085Z,96955.28
2023-04-09T18:02:14.310Z,96957.72
2023-04-09T18:04:43.037Z,96960.78
2023-04-09T18:07:11.551Z,96960.41
2023-04-09T18:09:40.610Z,96957.38
2023-04-09T18:12:09.102Z,96956.00
2023-04-09T18:14:37.483Z,96952.00
2023-04-09T18:17:05.998Z,96956.88
2023-04-09T18:19:35.756Z,96960.09
2023-04-09T18:22:04.139Z,96969.56
2023-04-09T18:24:33.714Z,96964.88
2023-04-09T18:27:02.826Z,96969.38
2023-04-09T18:29:32.175Z,96970.63
2023-04-09T18:32:00.727Z,96973.56
2023-04-09T18:34:29.658Z,96972.75
2023-04-09T18:36:59.498Z,96969.47
2023-04-09T18:39:27.976Z,96975.44
2023-04-09T18:41:57.117Z,96968.06
2023-04-09T18:44:25.998Z,96971.97
2023-04-09T18:46:54.601Z,96967.25
2023-04-09T18:49:23.050Z,96976.69
2023-04-09T18:51:51.430Z,96988.47
2023-04-09T18:54:21.349Z,96993.88
2023-04-09T18:56:49.832Z,96994.44
2023-04-09T18:59:18.422Z,96994.19
2023-04-09T19:01:49.389Z,97005.81
2023-04-09T19:04:17.987Z,97005.41
2023-04-09T19:06:49.195Z,97009.16
2023-04-09T19:09:17.748Z,97010.13
2023-04-09T19:11:48.696Z,97014.69
2023-04-09T19:14:17.265Z,97024.06
2023-04-09T19:16:46.834Z,97022.44
2023-04-09T19:19:15.191Z,97021.56
2023-04-09T19:21:43.650Z,97024.22
2023-04-09T19:24:12.035Z,97033.50
2023-04-09T19:26:40.430Z,97017.84
2023-04-09T19:29:10.315Z,97017.97
2023-04-09T19:31:38.837Z,97020.84
2023-04-09T19:34:07.314Z,97016.56
2023-04-09T19:36:35.732Z,97011.69
2023-04-09T19:39:04.377Z,97010.44
2023-04-09T19:41:33.059Z,97012.06
2023-04-09T19:44:02.441Z,97016.47
2023-04-09T19:46:32.423Z,97031.28
2023-04-09T19:49:01.000Z,97029.44
2023-04-09T19:51:29.712Z,97029.22
2023-04-09T19:53:58.136Z,97033.47
2023-04-09T19:56:26.539Z,97027.81
2023-04-09T19:58:55.412Z,97034.13
2023-04-09T20:01:24.125Z,97028.34
2023-04-09T20:03:54.104Z,97025.59
2023-04-09T20:06:22.970Z,97033.94
2023-04-09T20:08:53.261Z,97030.22
2023-04-09T20:11:21.884Z,97032.97
2023-04-09T20:13:50.279Z,97031.84
2023-04-09T20:16:18.759Z,97035.19
2023-04-09T20:18:47.611Z,97032.56
2023-04-09T20:21:17.689Z,97030.63
2023-04-09T20:23:46.280Z,97039.09
2023-04-09T20:26:14.654Z,97038.53
2023-04-09T20:28:43.466Z,97035.00
2023-04-09T20:31:11.886Z,97037.69
2023-04-09T20:33:40.501Z,97036.56
2023-04-09T20:36:16.186Z,97036.56
2023-04-09T20:38:46.266Z,97036.88
2023-04-09T20:41:14.817Z,97037.00
2023-04-09T20:43:43.277Z,97042.97
2023-04-09T20:46:11.955Z,97040.34
2023-04-09T20:48:40.474Z,97045.75
2023-04-09T20:51:12.767Z,97043.47
2023-04-09T20:53:41.171Z,97045.66
2023-04-09T20:56:11.043Z,97048.06
2023-04-09T20:58:39.977Z,97045.25
2023-04-09T21:01:10.086Z,97042.41
2023-04-09T21:03:40.101Z,97047.59
2023-04-09T21:06:09.380Z,97040.56
2023-04-09T21:08:38.491Z,97034.63
2023-04-09T21:11:07.134Z,97030.38
2023-04-09T21:13:51.009Z,97032.41
2023-04-09T21:16:22.908Z,97027.91
2023-04-09T21:18:51.715Z,97028.25
2023-04-09T21:21:20.566Z,97031.25
2023-04-09T21:23:49.489Z,97034.69
2023-04-09T21:26:17.898Z,97037.81
2023-04-09T21:28:50.572Z,97028.41
2023-04-09T21:31:19.220Z,97023.50
2023-04-09T21:33:50.014Z,97025.88
2023-04-09T21:36:18.520Z,97020.97
2023-04-09T21:38:48.260Z,97022.78
2023-04-09T21:41:16.973Z,97023.50
2023-04-09T21:43:46.946Z,97023.59
2023-04-09T21:46:15.442Z,97034.47
2023-04-09T21:48:43.993Z,97031.50
2023-04-09T21:51:12.667Z,97034.13
2023-04-09T21:53:41.137Z,97033.75
2023-04-09T21:56:09.974Z,97041.97
2023-04-09T21:58:38.426Z,97033.97
2023-04-09T22:01:15.667Z,97048.78
2023-04-09T22:03:47.625Z,97045.31
2023-04-09T22:06:16.257Z,97050.44
2023-04-09T22:08:55.558Z,97053.06
2023-04-09T22:11:27.033Z,97054.50
2023-04-09T22:13:56.259Z,97054.50
2023-04-09T22:16:27.293Z,97043.16
2023-04-09T22:18:56.277Z,97046.28
2023-04-09T22:21:25.231Z,97047.81
2023-04-09T22:23:53.678Z,97056.28
2023-04-09T22:26:22.670Z,97057.84
2023-04-09T22:28:52.489Z,97056.19
2023-04-09T22:31:21.625Z,97056.91
2023-04-09T22:33:52.555Z,97060.22
2023-04-09T22:36:21.058Z,97062.16
2023-04-09T22:38:51.921Z,97054.16
2023-04-09T22:41:21.307Z,97054.28
2023-04-09T22:43:52.466Z,97062.16
2023-04-09T22:46:20.935Z,97058.09
2023-04-09T22:48:52.073Z,97059.19
2023-04-09T22:51:22.007Z,97049.72
2023-04-09T22:53:51.274Z,97056.56
2023-04-09T22:56:21.561Z,97059.06
2023-04-09T22:58:51.638Z,97051.41
2023-04-09T23:01:22.264Z,97060.25
2023-04-09T23:03:52.085Z,97071.19
2023-04-09T23:06:22.728Z,97072.03
2023-04-09T23:08:51.797Z,97067.38
2023-04-09T23:11:21.033Z,97065.94
2023-04-09T23:13:50.411Z,97068.44
2023-04-09T23:16:18.763Z,97057.81
2023-04-09T23:18:47.166Z,97062.13
2023-04-09T23:21:15.661Z,97052.84
2023-04-09T23:23:45.427Z,97056.03
2023-04-09T23:26:13.755Z,97041.59
2023-04-09T23:28:42.178Z,97045.16
2023-04-09T23:31:10.603Z,97048.63
2023-04-09T23:33:38.994Z,97037.97
2023-04-09T23:36:08.111Z,97032.97
2023-04-09T23:38:36.635Z,97031.72
2023-04-09T23:41:06.841Z,97014.81
2023-04-09T23:43:35.354Z,97020.63
2023-04-09T23:46:03.753Z,97015.47
2023-04-09T23:48:32.111Z,97015.91
2023-04-09T23:51:00.640Z,97014.34
2023-04-09T23:53:29.028Z,97015.19
2023-04-09T23:55:57.388Z,97011.41
2023-04-09T23:58:27.151Z,97016.19
